sensor_id;sensor_type;location;lat;lon;timestamp;temperature;humidity
6256;DHT22;3161;48.794;9.784;2023-06-26T00:02:25;18.40;99.90
6256;DHT22;3161;48.794;9.784;2023-06-26T00:04:52;18.40;99.90
6256;DHT22;3161;48.794;9.784;2023-06-26T00:07:20;18.30;99.90
6256;DHT22;3161;48.794;9.784;2023-06-26T00:09:48;18.30;99.90
6256;DHT22;3161;48.794;9.784;2023-06-26T00:12:15;18.30;99.90
6256;DHT22;3161;48.794;9.784;2023-06-26T00:14:43;18.30;99.90
6256;DHT22;3161;48.794;9.784;2023-06-26T00:17:11;18.20;99.90
6256;DHT22;3161;48.794;9.784;2023-06-26T00:19:39;18.20;99.90
6256;DHT22;3161;48.794;9.784;2023-06-26T00:22:07;18.10;99.90
6256;DHT22;3161;48.794;9.784;2023-06-26T00:24:34;18.10;99.90
6256;DHT22;3161;48.794;9.784;2023-06-26T00:27:02;18.00;99.90
6256;DHT22;3161;48.794;9.784;2023-06-26T00:29:29;18.00;99.90
6256;DHT22;3161;48.794;9.784;2023-06-26T00:31:57;18.00;99.90
6256;DHT22;3161;48.794;9.784;2023-06-26T00:34:24;18.00;99.90
6256;DHT22;3161;48.794;9.784;2023-06-26T00:36:52;17.90;99.90
6256;DHT22;3161;48.794;9.784;2023-06-26T00:39:19;17.90;99.90
6256;DHT22;3161;48.794;9.784;2023-06-26T00:41:47;17.90;99.90
6256;DHT22;3161;48.794;9.784;2023-06-26T00:44:15;17.90;99.90
6256;DHT22;3161;48.794;9.784;2023-06-26T00:46:42;17.90;99.90
6256;DHT22;3161;48.794;9.784;2023-06-26T00:49:10;17.80;99.90
6256;DHT22;3161;48.794;9.784;2023-06-26T00:51:38;17.80;99.90
6256;DHT22;3161;48.794;9.784;2023-06-26T00:54:05;17.70;99.90
6256;DHT22;3161;48.794;9.784;2023-06-26T00:56:34;17.70;99.90
6256;DHT22;3161;48.794;9.784;2023-06-26T00:59:02;17.70;99.90
6256;DHT22;3161;48.794;9.784;2023-06-26T01:01:29;17.60;99.90
6256;DHT22;3161;48.794;9.784;2023-06-26T01:03:57;17.60;99.90
6256;DHT22;3161;48.794;9.784;2023-06-26T01:06:26;17.60;99.90
6256;DHT22;3161;48.794;9.784;2023-06-26T01:08:57;17.60;99.90
6256;DHT22;3161;48.794;9.784;2023-06-26T01:11:26;17.50;99.90
6256;DHT22;3161;48.794;9.784;2023-06-26T01:13:54;17.50;99.90
6256;DHT22;3161;48.794;9.784;2023-06-26T01:16:28;17.50;99.90
6256;DHT22;3161;48.794;9.784;2023-06-26T01:18:57;17.40;99.90
6256;DHT22;3161;48.794;9.784;2023-06-26T01:21:25;17.40;99.90
6256;DHT22;3161;48.794;9.784;2023-06-26T01:24:05;17.40;99.90
6256;DHT22;3161;48.794;9.784;2023-06-26T01:26:33;17.40;99.90
6256;DHT22;3161;48.794;9.784;2023-06-26T01:29:06;17.30;99.90
6256;DHT22;3161;48.794;9.784;2023-06-26T01:31:35;17.30;99.90
6256;DHT22;3161;48.794;9.784;2023-06-26T01:34:03;17.30;99.90
6256;DHT22;3161;48.794;9.784;2023-06-26T01:36:31;17.20;99.90
6256;DHT22;3161;48.794;9.784;2023-06-26T01:38:59;17.20;99.90
6256;DHT22;3161;48.794;9.784;2023-06-26T01:41:26;17.20;99.90
6256;DHT22;3161;48.794;9.784;2023-06-26T01:46:54;17.10;99.90
6256;DHT22;3161;48.794;9.784;2023-06-26T01:54:39;17.00;99.90
6256;DHT22;3161;48.794;9.784;2023-06-26T01:57:09;17.00;99.90
6256;DHT22;3161;48.794;9.784;2023-06-26T01:59:37;17.00;99.90
6256;DHT22;3161;48.794;9.784;2023-06-26T02:02:07;16.90;99.90
6256;DHT22;3161;48.794;9.784;2023-06-26T02:04:35;16.90;99.90
6256;DHT22;3161;48.794;9.784;2023-06-26T02:07:04;16.90;99.90
6256;DHT22;3161;48.794;9.784;2023-06-26T02:09:31;16.80;99.90
6256;DHT22;3161;48.794;9.784;2023-06-26T02:11:59;16.80;99.90
6256;DHT22;3161;48.794;9.784;2023-06-26T02:14:26;16.80;99.90
6256;DHT22;3161;48.794;9.784;2023-06-26T02:16:54;16.80;99.90
6256;DHT22;3161;48.794;9.784;2023-06-26T02:19:21;16.70;99.90
6256;DHT22;3161;48.794;9.784;2023-06-26T02:21:49;16.70;99.90
6256;DHT22;3161;48.794;9.784;2023-06-26T02:24:17;16.70;99.90
6256;DHT22;3161;48.794;9.784;2023-06-26T02:26:44;16.70;99.90
6256;DHT22;3161;48.794;9.784;2023-06-26T02:29:12;16.70;99.90
6256;DHT22;3161;48.794;9.784;2023-06-26T02:31:40;16.70;99.90
6256;DHT22;3161;48.794;9.784;2023-06-26T02:34:07;16.70;99.90
6256;DHT22;3161;48.794;9.784;2023-06-26T02:36:42;16.70;99.90
6256;DHT22;3161;48.794;9.784;2023-06-26T02:39:10;16.60;99.90
6256;DHT22;3161;48.794;9.784;2023-06-26T02:41:37;16.60;99.90
6256;DHT22;3161;48.794;9.784;2023-06-26T02:44:05;16.60;99.90
6256;DHT22;3161;48.794;9.784;2023-06-26T02:46:33;16.60;99.90
6256;DHT22;3161;48.794;9.784;2023-06-26T02:49:00;16.60;99.90
6256;DHT22;3161;48.794;9.784;2023-06-26T02:51:28;16.60;99.90
6256;DHT22;3161;48.794;9.784;2023-06-26T02:53:56;16.60;99.90
6256;DHT22;3161;48.794;9.784;2023-06-26T02:56:23;16.50;99.90
6256;DHT22;3161;48.794;9.784;2023-06-26T02:58:52;16.50;99.90
6256;DHT22;3161;48.794;9.784;2023-06-26T03:01:20;16.50;99.90
6256;DHT22;3161;48.794;9.784;2023-06-26T03:03:47;16.50;99.90
6256;DHT22;3161;48.794;9.784;2023-06-26T03:06:15;16.40;99.90
6256;DHT22;3161;48.794;9.784;2023-06-26T03:08:43;16.40;99.90
6256;DHT22;3161;48.794;9.784;2023-06-26T03:11:10;16.40;99.90
6256;DHT22;3161;48.794;9.784;2023-06-26T03:13:38;16.40;99.90
6256;DHT22;3161;48.794;9.784;2023-06-26T03:16:05;16.40;99.90
6256;DHT22;3161;48.794;9.784;2023-06-26T03:18:33;16.40;99.90
6256;DHT22;3161;48.794;9.784;2023-06-26T03:21:01;16.40;99.90
6256;DHT22;3161;48.794;9.784;2023-06-26T03:23:29;16.40;99.90
6256;DHT22;3161;48.794;9.784;2023-06-26T03:25:56;16.40;99.90
6256;DHT22;3161;48.794;9.784;2023-06-26T03:28:23;16.30;99.90
6256;DHT22;3161;48.794;9.784;2023-06-26T03:30:51;16.30;99.90
6256;DHT22;3161;48.794;9.784;2023-06-26T03:33:19;16.30;99.90
6256;DHT22;3161;48.794;9.784;2023-06-26T03:35:46;16.30;99.90
6256;DHT22;3161;48.794;9.784;2023-06-26T03:38:13;16.30;99.90
6256;DHT22;3161;48.794;9.784;2023-06-26T03:40:41;16.30;99.90
6256;DHT22;3161;48.794;9.784;2023-06-26T03:43:08;16.30;99.90
6256;DHT22;3161;48.794;9.784;2023-06-26T03:45:36;16.30;99.90
6256;DHT22;3161;48.794;9.784;2023-06-26T03:48:04;16.30;99.90
6256;DHT22;3161;48.794;9.784;2023-06-26T03:50:31;16.30;99.90
6256;DHT22;3161;48.794;9.784;2023-06-26T03:52:59;16.30;99.90
6256;DHT22;3161;48.794;9.784;2023-06-26T03:55:26;16.30;99.90
6256;DHT22;3161;48.794;9.784;2023-06-26T03:57:54;16.30;99.90
6256;DHT22;3161;48.794;9.784;2023-06-26T04:00:21;16.30;99.90
6256;DHT22;3161;48.794;9.784;2023-06-26T04:02:49;16.30;99.90
6256;DHT22;3161;48.794;9.784;2023-06-26T04:05:17;16.30;99.90
6256;DHT22;3161;48.794;9.784;2023-06-26T04:07:45;16.30;99.90
6256;DHT22;3161;48.794;9.784;2023-06-26T04:10:13;16.30;99.90
6256;DHT22;3161;48.794;9.784;2023-06-26T04:12:40;16.30;99.90
6256;DHT22;3161;48.794;9.784;2023-06-26T04:15:08;16.30;99.90
6256;DHT22;3161;48.794;9.784;2023-06-26T04:17:36;16.30;99.90
6256;DHT22;3161;48.794;9.784;2023-06-26T04:20:04;16.30;99.90
6256;DHT22;3161;48.794;9.784;2023-06-26T04:22:35;16.30;99.90
6256;DHT22;3161;48.794;9.784;2023-06-26T04:25:03;16.30;99.90
6256;DHT22;3161;48.794;9.784;2023-06-26T04:27:31;16.40;99.90
6256;DHT22;3161;48.794;9.784;2023-06-26T04:29:58;16.40;99.90
6256;DHT22;3161;48.794;9.784;2023-06-26T04:32:26;16.40;99.90
6256;DHT22;3161;48.794;9.784;2023-06-26T04:34:53;16.40;99.90
6256;DHT22;3161;48.794;9.784;2023-06-26T04:37:21;16.40;99.90
6256;DHT22;3161;48.794;9.784;2023-06-26T04:39:49;16.50;99.90
6256;DHT22;3161;48.794;9.784;2023-06-26T04:42:16;16.50;99.90
6256;DHT22;3161;48.794;9.784;2023-06-26T04:44:45;16.50;99.90
6256;DHT22;3161;48.794;9.784;2023-06-26T04:47:13;16.60;99.90
6256;DHT22;3161;48.794;9.784;2023-06-26T04:49:43;16.60;99.90
6256;DHT22;3161;48.794;9.784;2023-06-26T04:52:13;16.70;99.90
6256;DHT22;3161;48.794;9.784;2023-06-26T04:54:40;16.70;99.90
6256;DHT22;3161;48.794;9.784;2023-06-26T04:57:08;16.80;99.90
6256;DHT22;3161;48.794;9.784;2023-06-26T04:59:36;16.80;99.90
6256;DHT22;3161;48.794;9.784;2023-06-26T05:02:04;16.80;99.90
6256;DHT22;3161;48.794;9.784;2023-06-26T05:04:31;16.90;99.90
6256;DHT22;3161;48.794;9.784;2023-06-26T05:06:59;17.00;99.90
6256;DHT22;3161;48.794;9.784;2023-06-26T05:09:27;17.00;99.90
6256;DHT22;3161;48.794;9.784;2023-06-26T05:11:54;17.10;99.90
6256;DHT22;3161;48.794;9.784;2023-06-26T05:14:22;17.20;99.90
6256;DHT22;3161;48.794;9.784;2023-06-26T05:16:49;17.30;99.90
6256;DHT22;3161;48.794;9.784;2023-06-26T05:19:17;17.40;99.90
6256;DHT22;3161;48.794;9.784;2023-06-26T05:21:45;17.50;99.90
6256;DHT22;3161;48.794;9.784;2023-06-26T05:24:13;17.60;99.90
6256;DHT22;3161;48.794;9.784;2023-06-26T05:26:43;17.70;99.90
6256;DHT22;3161;48.794;9.784;2023-06-26T05:29:11;17.80;99.90
6256;DHT22;3161;48.794;9.784;2023-06-26T05:31:41;17.90;99.90
6256;DHT22;3161;48.794;9.784;2023-06-26T05:36:59;18.20;99.90
6256;DHT22;3161;48.794;9.784;2023-06-26T05:39:28;18.30;99.90
6256;DHT22;3161;48.794;9.784;2023-06-26T05:41:56;18.50;99.90
6256;DHT22;3161;48.794;9.784;2023-06-26T05:44:24;18.60;99.90
6256;DHT22;3161;48.794;9.784;2023-06-26T05:46:52;18.70;99.90
6256;DHT22;3161;48.794;9.784;2023-06-26T05:49:19;18.80;99.90
6256;DHT22;3161;48.794;9.784;2023-06-26T05:51:47;18.50;99.90
6256;DHT22;3161;48.794;9.784;2023-06-26T05:54:15;19.10;99.90
6256;DHT22;3161;48.794;9.784;2023-06-26T05:56:43;19.30;99.90
6256;DHT22;3161;48.794;9.784;2023-06-26T05:59:12;19.40;99.90
6256;DHT22;3161;48.794;9.784;2023-06-26T06:01:41;19.60;99.90
6256;DHT22;3161;48.794;9.784;2023-06-26T06:04:08;19.70;99.90
6256;DHT22;3161;48.794;9.784;2023-06-26T06:06:36;19.90;99.90
6256;DHT22;3161;48.794;9.784;2023-06-26T06:09:03;20.00;99.90
6256;DHT22;3161;48.794;9.784;2023-06-26T06:11:31;20.20;99.90
6256;DHT22;3161;48.794;9.784;2023-06-26T06:16:53;20.50;99.90
6256;DHT22;3161;48.794;9.784;2023-06-26T06:19:22;20.80;99.90
6256;DHT22;3161;48.794;9.784;2023-06-26T06:21:49;20.90;99.90
6256;DHT22;3161;48.794;9.784;2023-06-26T06:24:17;21.10;99.90
6256;DHT22;3161;48.794;9.784;2023-06-26T06:26:45;21.30;99.90
6256;DHT22;3161;48.794;9.784;2023-06-26T06:29:12;21.50;99.90
6256;DHT22;3161;48.794;9.784;2023-06-26T06:31:40;21.60;99.90
6256;DHT22;3161;48.794;9.784;2023-06-26T06:34:07;21.80;99.90
6256;DHT22;3161;48.794;9.784;2023-06-26T06:36:35;22.00;99.90
6256;DHT22;3161;48.794;9.784;2023-06-26T06:39:03;22.20;99.90
6256;DHT22;3161;48.794;9.784;2023-06-26T06:41:30;22.40;99.90
6256;DHT22;3161;48.794;9.784;2023-06-26T06:43:58;22.50;99.90
6256;DHT22;3161;48.794;9.784;2023-06-26T06:46:25;22.70;99.90
6256;DHT22;3161;48.794;9.784;2023-06-26T06:48:54;23.00;99.90
6256;DHT22;3161;48.794;9.784;2023-06-26T06:51:21;23.20;99.90
6256;DHT22;3161;48.794;9.784;2023-06-26T06:53:49;23.30;99.90
6256;DHT22;3161;48.794;9.784;2023-06-26T06:56:16;23.50;99.90
6256;DHT22;3161;48.794;9.784;2023-06-26T06:58:44;23.70;99.90
6256;DHT22;3161;48.794;9.784;2023-06-26T07:01:13;23.90;99.70
6256;DHT22;3161;48.794;9.784;2023-06-26T07:03:41;24.10;99.40
6256;DHT22;3161;48.794;9.784;2023-06-26T07:06:08;24.30;98.70
6256;DHT22;3161;48.794;9.784;2023-06-26T07:08:36;24.50;98.10
6256;DHT22;3161;48.794;9.784;2023-06-26T07:11:03;24.80;97.90
6256;DHT22;3161;48.794;9.784;2023-06-26T07:13:31;25.00;96.40
6256;DHT22;3161;48.794;9.784;2023-06-26T07:15:58;25.20;95.80
6256;DHT22;3161;48.794;9.784;2023-06-26T07:18:26;25.40;95.20
6256;DHT22;3161;48.794;9.784;2023-06-26T07:20:54;25.60;94.00
6256;DHT22;3161;48.794;9.784;2023-06-26T07:23:21;25.80;92.90
6256;DHT22;3161;48.794;9.784;2023-06-26T07:25:49;26.10;92.40
6256;DHT22;3161;48.794;9.784;2023-06-26T07:28:16;26.20;92.70
6256;DHT22;3161;48.794;9.784;2023-06-26T07:30:44;26.40;91.90
6256;DHT22;3161;48.794;9.784;2023-06-26T07:33:11;26.60;91.10
6256;DHT22;3161;48.794;9.784;2023-06-26T07:35:39;26.80;91.40
6256;DHT22;3161;48.794;9.784;2023-06-26T07:38:07;27.10;90.50
6256;DHT22;3161;48.794;9.784;2023-06-26T07:40:34;27.30;88.00
6256;DHT22;3161;48.794;9.784;2023-06-26T07:43:02;27.40;86.80
6256;DHT22;3161;48.794;9.784;2023-06-26T07:45:29;27.60;83.40
6256;DHT22;3161;48.794;9.784;2023-06-26T07:47:57;27.60;82.40
6256;DHT22;3161;48.794;9.784;2023-06-26T07:50:25;27.70;82.20
6256;DHT22;3161;48.794;9.784;2023-06-26T07:52:53;27.90;80.80
6256;DHT22;3161;48.794;9.784;2023-06-26T07:55:20;27.90;80.60
6256;DHT22;3161;48.794;9.784;2023-06-26T07:57:48;28.00;79.20
6256;DHT22;3161;48.794;9.784;2023-06-26T08:00:18;28.10;79.10
6256;DHT22;3161;48.794;9.784;2023-06-26T08:02:45;28.20;78.60
6256;DHT22;3161;48.794;9.784;2023-06-26T08:05:13;28.30;78.00
6256;DHT22;3161;48.794;9.784;2023-06-26T08:07:40;28.40;77.40
6256;DHT22;3161;48.794;9.784;2023-06-26T08:10:08;28.50;78.20
6256;DHT22;3161;48.794;9.784;2023-06-26T08:12:36;28.70;77.50
6256;DHT22;3161;48.794;9.784;2023-06-26T08:15:06;28.80;75.80
6256;DHT22;3161;48.794;9.784;2023-06-26T08:17:34;28.80;76.50
6256;DHT22;3161;48.794;9.784;2023-06-26T08:20:03;29.00;76.70
6256;DHT22;3161;48.794;9.784;2023-06-26T08:22:31;29.10;74.30
6256;DHT22;3161;48.794;9.784;2023-06-26T08:24:58;29.20;75.10
6256;DHT22;3161;48.794;9.784;2023-06-26T08:27:26;29.30;72.70
6256;DHT22;3161;48.794;9.784;2023-06-26T08:29:53;29.50;73.10
6256;DHT22;3161;48.794;9.784;2023-06-26T08:32:25;29.60;73.00
6256;DHT22;3161;48.794;9.784;2023-06-26T08:34:53;29.70;72.10
6256;DHT22;3161;48.794;9.784;2023-06-26T08:37:20;29.90;69.70
6256;DHT22;3161;48.794;9.784;2023-06-26T08:39:48;30.00;70.30
6256;DHT22;3161;48.794;9.784;2023-06-26T08:42:16;30.10;68.90
6256;DHT22;3161;48.794;9.784;2023-06-26T08:44:43;30.20;68.20
6256;DHT22;3161;48.794;9.784;2023-06-26T08:47:11;30.20;67.30
6256;DHT22;3161;48.794;9.784;2023-06-26T08:52:28;30.40;66.50
6256;DHT22;3161;48.794;9.784;2023-06-26T08:54:57;30.60;65.00
6256;DHT22;3161;48.794;9.784;2023-06-26T08:57:26;30.60;65.20
6256;DHT22;3161;48.794;9.784;2023-06-26T08:59:53;30.70;63.90
6256;DHT22;3161;48.794;9.784;2023-06-26T09:02:24;30.70;65.10
6256;DHT22;3161;48.794;9.784;2023-06-26T09:04:50;30.70;63.50
6256;DHT22;3161;48.794;9.784;2023-06-26T09:07:18;30.80;64.60
6256;DHT22;3161;48.794;9.784;2023-06-26T09:09:46;30.80;64.80
6256;DHT22;3161;48.794;9.784;2023-06-26T09:12:13;30.90;64.20
6256;DHT22;3161;48.794;9.784;2023-06-26T09:14:41;31.00;63.30
6256;DHT22;3161;48.794;9.784;2023-06-26T09:17:09;31.10;67.20
6256;DHT22;3161;48.794;9.784;2023-06-26T09:19:37;31.20;66.30
6256;DHT22;3161;48.794;9.784;2023-06-26T09:22:16;31.40;64.00
6256;DHT22;3161;48.794;9.784;2023-06-26T09:24:36;31.50;64.80
6256;DHT22;3161;48.794;9.784;2023-06-26T09:27:04;31.60;61.10
6256;DHT22;3161;48.794;9.784;2023-06-26T09:29:33;31.70;63.90
6256;DHT22;3161;48.794;9.784;2023-06-26T09:32:01;31.90;62.10
6256;DHT22;3161;48.794;9.784;2023-06-26T09:34:32;32.00;60.60
6256;DHT22;3161;48.794;9.784;2023-06-26T09:37:00;32.10;59.60
6256;DHT22;3161;48.794;9.784;2023-06-26T09:39:32;32.20;61.00
6256;DHT22;3161;48.794;9.784;2023-06-26T09:42:00;32.30;61.50
6256;DHT22;3161;48.794;9.784;2023-06-26T09:44:32;32.30;59.50
6256;DHT22;3161;48.794;9.784;2023-06-26T09:47:02;32.40;59.10
6256;DHT22;3161;48.794;9.784;2023-06-26T09:49:32;32.50;58.40
6256;DHT22;3161;48.794;9.784;2023-06-26T09:52:01;32.60;61.20
6256;DHT22;3161;48.794;9.784;2023-06-26T09:54:29;32.70;60.30
6256;DHT22;3161;48.794;9.784;2023-06-26T09:57:08;32.90;59.40
6256;DHT22;3161;48.794;9.784;2023-06-26T09:59:36;32.90;57.00
6256;DHT22;3161;48.794;9.784;2023-06-26T10:02:04;33.00;56.00
6256;DHT22;3161;48.794;9.784;2023-06-26T10:04:33;33.00;55.40
6256;DHT22;3161;48.794;9.784;2023-06-26T10:07:04;32.90;55.70
6256;DHT22;3161;48.794;9.784;2023-06-26T10:09:31;33.00;55.10
6256;DHT22;3161;48.794;9.784;2023-06-26T10:12:06;32.90;54.80
6256;DHT22;3161;48.794;9.784;2023-06-26T10:14:37;32.80;55.80
6256;DHT22;3161;48.794;9.784;2023-06-26T10:17:11;32.80;57.10
6256;DHT22;3161;48.794;9.784;2023-06-26T10:19:44;32.80;55.50
6256;DHT22;3161;48.794;9.784;2023-06-26T10:22:14;32.90;56.70
6256;DHT22;3161;48.794;9.784;2023-06-26T10:24:41;32.90;56.20
6256;DHT22;3161;48.794;9.784;2023-06-26T10:27:21;33.00;55.00
6256;DHT22;3161;48.794;9.784;2023-06-26T10:29:56;33.00;55.10
6256;DHT22;3161;48.794;9.784;2023-06-26T10:32:26;33.00;54.10
6256;DHT22;3161;48.794;9.784;2023-06-26T10:34:50;33.00;53.80
6256;DHT22;3161;48.794;9.784;2023-06-26T10:37:18;33.00;55.00
6256;DHT22;3161;48.794;9.784;2023-06-26T10:39:50;33.00;54.60
6256;DHT22;3161;48.794;9.784;2023-06-26T10:42:19;33.10;54.10
6256;DHT22;3161;48.794;9.784;2023-06-26T10:44:48;33.20;54.30
6256;DHT22;3161;48.794;9.784;2023-06-26T10:47:32;33.20;53.10
6256;DHT22;3161;48.794;9.784;2023-06-26T10:50:24;33.20;53.30
6256;DHT22;3161;48.794;9.784;2023-06-26T11:01:19;33.40;54.50
6256;DHT22;3161;48.794;9.784;2023-06-26T11:06:31;33.50;54.10
6256;DHT22;3161;48.794;9.784;2023-06-26T11:09:09;33.60;54.10
6256;DHT22;3161;48.794;9.784;2023-06-26T11:14:27;33.80;52.90
6256;DHT22;3161;48.794;9.784;2023-06-26T11:16:58;33.90;55.40
6256;DHT22;3161;48.794;9.784;2023-06-26T11:19:27;34.00;53.90
6256;DHT22;3161;48.794;9.784;2023-06-26T11:21:59;34.00;55.30
6256;DHT22;3161;48.794;9.784;2023-06-26T11:24:30;34.00;55.30
6256;DHT22;3161;48.794;9.784;2023-06-26T11:26:59;34.10;54.90
6256;DHT22;3161;48.794;9.784;2023-06-26T11:29:29;34.20;55.20
6256;DHT22;3161;48.794;9.784;2023-06-26T11:32:00;34.20;55.20
6256;DHT22;3161;48.794;9.784;2023-06-26T11:34:33;34.20;55.10
6256;DHT22;3161;48.794;9.784;2023-06-26T11:37:01;34.20;54.80
6256;DHT22;3161;48.794;9.784;2023-06-26T11:39:30;34.40;54.90
6256;DHT22;3161;48.794;9.784;2023-06-26T11:41:59;34.40;55.20
6256;DHT22;3161;48.794;9.784;2023-06-26T11:44:31;34.50;55.00
6256;DHT22;3161;48.794;9.784;2023-06-26T11:46:59;34.50;54.60
6256;DHT22;3161;48.794;9.784;2023-06-26T11:49:28;34.40;55.00
6256;DHT22;3161;48.794;9.784;2023-06-26T11:51:56;34.30;53.60
6256;DHT22;3161;48.794;9.784;2023-06-26T11:54:30;34.00;53.20
6256;DHT22;3161;48.794;9.784;2023-06-26T11:56:56;34.00;53.60
6256;DHT22;3161;48.794;9.784;2023-06-26T11:59:24;33.90;54.80
6256;DHT22;3161;48.794;9.784;2023-06-26T12:01:52;33.90;55.60
6256;DHT22;3161;48.794;9.784;2023-06-26T12:04:20;33.90;54.40
6256;DHT22;3161;48.794;9.784;2023-06-26T12:06:52;33.90;54.70
6256;DHT22;3161;48.794;9.784;2023-06-26T12:09:21;34.10;54.00
6256;DHT22;3161;48.794;9.784;2023-06-26T12:11:53;34.00;55.40
6256;DHT22;3161;48.794;9.784;2023-06-26T12:14:23;34.00;54.60
6256;DHT22;3161;48.794;9.784;2023-06-26T12:16:52;33.90;55.80
6256;DHT22;3161;48.794;9.784;2023-06-26T12:19:25;33.90;56.20
6256;DHT22;3161;48.794;9.784;2023-06-26T12:21:53;33.90;54.90
6256;DHT22;3161;48.794;9.784;2023-06-26T12:24:23;34.00;56.20
6256;DHT22;3161;48.794;9.784;2023-06-26T12:26:54;33.90;55.00
6256;DHT22;3161;48.794;9.784;2023-06-26T12:29:33;33.90;56.10
6256;DHT22;3161;48.794;9.784;2023-06-26T12:32:01;33.90;56.90
6256;DHT22;3161;48.794;9.784;2023-06-26T12:34:31;33.90;57.90
6256;DHT22;3161;48.794;9.784;2023-06-26T12:39:55;34.10;57.40
6256;DHT22;3161;48.794;9.784;2023-06-26T12:42:24;34.10;57.10
6256;DHT22;3161;48.794;9.784;2023-06-26T12:44:53;34.20;58.10
6256;DHT22;3161;48.794;9.784;2023-06-26T12:47:26;34.50;57.40
6256;DHT22;3161;48.794;9.784;2023-06-26T12:49:54;34.60;56.90
6256;DHT22;3161;48.794;9.784;2023-06-26T12:52:22;34.80;56.30
6256;DHT22;3161;48.794;9.784;2023-06-26T12:54:54;35.10;55.90
6256;DHT22;3161;48.794;9.784;2023-06-26T12:57:22;35.30;56.40
6256;DHT22;3161;48.794;9.784;2023-06-26T12:59:50;35.30;56.30
6256;DHT22;3161;48.794;9.784;2023-06-26T13:02:18;35.60;56.40
6256;DHT22;3161;48.794;9.784;2023-06-26T13:04:46;35.90;55.80
6256;DHT22;3161;48.794;9.784;2023-06-26T13:07:13;36.10;54.50
6256;DHT22;3161;48.794;9.784;2023-06-26T13:09:41;36.40;54.30
6256;DHT22;3161;48.794;9.784;2023-06-26T13:12:09;36.70;54.40
6256;DHT22;3161;48.794;9.784;2023-06-26T13:14:36;37.20;52.80
6256;DHT22;3161;48.794;9.784;2023-06-26T13:17:05;37.70;52.20
6256;DHT22;3161;48.794;9.784;2023-06-26T13:19:32;37.90;52.00
6256;DHT22;3161;48.794;9.784;2023-06-26T13:22:00;37.80;52.30
6256;DHT22;3161;48.794;9.784;2023-06-26T13:24:27;37.80;52.40
6256;DHT22;3161;48.794;9.784;2023-06-26T13:26:55;37.60;52.90
6256;DHT22;3161;48.794;9.784;2023-06-26T13:29:22;37.70;52.70
6256;DHT22;3161;48.794;9.784;2023-06-26T13:31:50;37.90;52.00
6256;DHT22;3161;48.794;9.784;2023-06-26T13:34:22;38.20;51.20
6256;DHT22;3161;48.794;9.784;2023-06-26T13:36:50;38.90;50.30
6256;DHT22;3161;48.794;9.784;2023-06-26T13:39:18;39.80;48.30
6256;DHT22;3161;48.794;9.784;2023-06-26T13:41:46;40.60;47.50
6256;DHT22;3161;48.794;9.784;2023-06-26T13:44:14;41.30;46.40
6256;DHT22;3161;48.794;9.784;2023-06-26T13:46:41;41.60;45.60
6256;DHT22;3161;48.794;9.784;2023-06-26T13:49:09;41.40;45.90
6256;DHT22;3161;48.794;9.784;2023-06-26T13:51:36;40.70;45.90
6256;DHT22;3161;48.794;9.784;2023-06-26T13:54:04;39.80;46.70
6256;DHT22;3161;48.794;9.784;2023-06-26T13:56:32;39.00;48.40
6256;DHT22;3161;48.794;9.784;2023-06-26T13:58:59;38.20;49.80
6256;DHT22;3161;48.794;9.784;2023-06-26T14:01:29;37.60;50.30
6256;DHT22;3161;48.794;9.784;2023-06-26T14:03:56;37.10;51.60
6256;DHT22;3161;48.794;9.784;2023-06-26T14:06:24;36.50;52.10
6256;DHT22;3161;48.794;9.784;2023-06-26T14:08:51;36.10;52.60
6256;DHT22;3161;48.794;9.784;2023-06-26T14:11:19;35.60;54.10
6256;DHT22;3161;48.794;9.784;2023-06-26T14:13:48;35.20;54.50
6256;DHT22;3161;48.794;9.784;2023-06-26T14:16:16;34.80;55.30
6256;DHT22;3161;48.794;9.784;2023-06-26T14:18:45;34.50;55.40
6256;DHT22;3161;48.794;9.784;2023-06-26T14:21:12;34.30;57.00
6256;DHT22;3161;48.794;9.784;2023-06-26T14:23:41;34.20;55.50
6256;DHT22;3161;48.794;9.784;2023-06-26T14:26:08;34.00;57.10
6256;DHT22;3161;48.794;9.784;2023-06-26T14:28:37;33.90;56.80
6256;DHT22;3161;48.794;9.784;2023-06-26T14:31:05;33.70;56.50
6256;DHT22;3161;48.794;9.784;2023-06-26T14:33:33;33.50;56.30
6256;DHT22;3161;48.794;9.784;2023-06-26T14:36:00;33.40;56.40
6256;DHT22;3161;48.794;9.784;2023-06-26T14:38:28;33.30;55.70
6256;DHT22;3161;48.794;9.784;2023-06-26T14:40:55;33.20;56.50
6256;DHT22;3161;48.794;9.784;2023-06-26T14:43:23;33.00;56.60
6256;DHT22;3161;48.794;9.784;2023-06-26T14:45:50;32.80;57.30
6256;DHT22;3161;48.794;9.784;2023-06-26T14:48:18;32.80;56.70
6256;DHT22;3161;48.794;9.784;2023-06-26T14:50:46;32.60;56.50
6256;DHT22;3161;48.794;9.784;2023-06-26T14:53:13;32.50;56.30
6256;DHT22;3161;48.794;9.784;2023-06-26T14:55:41;32.40;55.40
6256;DHT22;3161;48.794;9.784;2023-06-26T14:58:08;32.30;56.30
6256;DHT22;3161;48.794;9.784;2023-06-26T15:00:36;32.30;55.50
6256;DHT22;3161;48.794;9.784;2023-06-26T15:03:03;32.30;55.10
6256;DHT22;3161;48.794;9.784;2023-06-26T15:05:31;32.10;54.80
6256;DHT22;3161;48.794;9.784;2023-06-26T15:07:58;32.00;54.30
6256;DHT22;3161;48.794;9.784;2023-06-26T15:10:26;31.90;53.70
6256;DHT22;3161;48.794;9.784;2023-06-26T15:12:53;31.80;53.60
6256;DHT22;3161;48.794;9.784;2023-06-26T15:15:21;31.60;54.80
6256;DHT22;3161;48.794;9.784;2023-06-26T15:17:48;31.60;55.50
6256;DHT22;3161;48.794;9.784;2023-06-26T15:20:16;31.60;54.70
6256;DHT22;3161;48.794;9.784;2023-06-26T15:22:43;31.60;55.40
6256;DHT22;3161;48.794;9.784;2023-06-26T15:25:11;31.50;55.40
6256;DHT22;3161;48.794;9.784;2023-06-26T15:27:39;31.50;55.40
6256;DHT22;3161;48.794;9.784;2023-06-26T15:30:07;31.50;55.00
6256;DHT22;3161;48.794;9.784;2023-06-26T15:32:35;31.40;55.00
6256;DHT22;3161;48.794;9.784;2023-06-26T15:35:02;31.40;55.50
6256;DHT22;3161;48.794;9.784;2023-06-26T15:37:30;31.40;55.30
6256;DHT22;3161;48.794;9.784;2023-06-26T15:39:58;31.40;54.10
6256;DHT22;3161;48.794;9.784;2023-06-26T15:42:28;31.10;54.60
6256;DHT22;3161;48.794;9.784;2023-06-26T15:44:56;31.10;54.20
6256;DHT22;3161;48.794;9.784;2023-06-26T15:47:23;31.00;54.80
6256;DHT22;3161;48.794;9.784;2023-06-26T15:49:51;30.80;55.20
6256;DHT22;3161;48.794;9.784;2023-06-26T15:52:19;30.80;55.40
6256;DHT22;3161;48.794;9.784;2023-06-26T15:54:46;30.80;54.90
6256;DHT22;3161;48.794;9.784;2023-06-26T15:57:14;30.60;55.40
6256;DHT22;3161;48.794;9.784;2023-06-26T15:59:41;30.60;56.00
6256;DHT22;3161;48.794;9.784;2023-06-26T16:02:09;30.50;55.50
6256;DHT22;3161;48.794;9.784;2023-06-26T16:04:36;30.40;56.00
6256;DHT22;3161;48.794;9.784;2023-06-26T16:07:04;30.30;56.30
6256;DHT22;3161;48.794;9.784;2023-06-26T16:09:32;30.10;56.50
6256;DHT22;3161;48.794;9.784;2023-06-26T16:12:00;30.00;56.40
6256;DHT22;3161;48.794;9.784;2023-06-26T16:14:27;30.00;57.00
6256;DHT22;3161;48.794;9.784;2023-06-26T16:16:55;30.00;56.90
6256;DHT22;3161;48.794;9.784;2023-06-26T16:19:22;30.00;56.70
6256;DHT22;3161;48.794;9.784;2023-06-26T16:21:50;29.90;57.10
6256;DHT22;3161;48.794;9.784;2023-06-26T16:24:17;29.90;57.30
6256;DHT22;3161;48.794;9.784;2023-06-26T16:26:45;29.90;57.20
6256;DHT22;3161;48.794;9.784;2023-06-26T16:29:12;29.80;57.10
6256;DHT22;3161;48.794;9.784;2023-06-26T16:31:40;29.70;57.10
6256;DHT22;3161;48.794;9.784;2023-06-26T16:34:08;29.60;57.00
6256;DHT22;3161;48.794;9.784;2023-06-26T16:36:35;29.50;57.10
6256;DHT22;3161;48.794;9.784;2023-06-26T16:39:03;29.40;57.20
6256;DHT22;3161;48.794;9.784;2023-06-26T16:41:31;29.30;57.60
6256;DHT22;3161;48.794;9.784;2023-06-26T16:43:58;29.20;58.20